Time;durP1;ratioP1;P1;durP2;ratioP2;P2;SDS_P1;SDS_P2;PMS_P1;PMS_P2;Temp;Humidity;BMP_temperature;BMP_pressure;BME280_temperature;BME280_humidity;BME280_pressure;Samples;Min_cycle;Max_cycle;Signal;HPM_P1;HPM_P2
2021/06/10 00:00:58;;;;;;;11.55;10.30;;;;;;;22.94;48.57;100331.78;5032320;28;20111;-84
2021/06/10 00:03:24;;;;;;;9.95;8.85;;;;;;;22.91;48.13;100335.63;5015841;28;20053;-84
2021/06/10 00:05:51;;;;;;;12.13;10.85;;;;;;;22.89;48.49;100334.09;5023554;28;20104;-83
2021/06/10 00:08:17;;;;;;;11.27;10.25;;;;;;;22.84;48.63;100334.53;5016769;28;20053;-83
2021/06/10 00:10:46;;;;;;;12.13;10.88;;;;;;;22.82;48.85;100330.34;5017152;28;20054;-84
2021/06/10 00:13:16;;;;;;;11.80;10.70;;;;;;;22.78;48.79;100330.66;5016404;28;20104;-83
2021/06/10 00:15:43;;;;;;;13.25;11.73;;;;;;;22.74;48.79;100326.59;5016053;28;20561;-83
2021/06/10 00:18:10;;;;;;;13.02;10.40;;;;;;;22.70;48.75;100325.22;4999028;28;20059;-83
2021/06/10 00:20:38;;;;;;;12.82;11.55;;;;;;;22.69;48.97;100333.41;5034399;28;20057;-84
2021/06/10 00:23:06;;;;;;;14.05;10.90;;;;;;;22.65;49.26;100336.38;5035017;28;20451;-84
2021/06/10 00:25:33;;;;;;;12.65;10.05;;;;;;;22.62;49.08;100331.31;5036168;28;20103;-83
2021/06/10 00:27:59;;;;;;;14.45;11.38;;;;;;;22.58;48.88;100327.25;5035847;28;20104;-84
2021/06/10 00:30:27;;;;;;;12.65;11.35;;;;;;;22.55;49.28;100329.41;5035574;28;20068;-84
2021/06/10 00:32:55;;;;;;;14.25;12.15;;;;;;;22.51;49.75;100324.31;5031162;28;20050;-83
2021/06/10 00:35:22;;;;;;;13.43;11.60;;;;;;;22.49;49.38;100326.31;4998397;28;20053;-84
2021/06/10 00:37:50;;;;;;;11.15;9.73;;;;;;;22.46;49.38;100333.84;5016296;28;20112;-84
2021/06/10 00:40:18;;;;;;;12.93;11.02;;;;;;;22.43;49.43;100334.13;4998708;28;20080;-84
2021/06/10 00:45:27;;;;;;;12.95;11.63;;;;;;;22.35;49.68;100319.63;5153906;22;20048;-82
2021/06/10 00:47:55;;;;;;;13.20;11.85;;;;;;;22.33;50.01;100316.25;5056372;28;20052;-83
2021/06/10 00:50:27;;;;;;;12.82;11.07;;;;;;;22.30;50.20;100327.28;5038913;28;20049;-83
2021/06/10 00:52:57;;;;;;;12.20;10.55;;;;;;;22.28;50.19;100325.75;5038449;28;20063;-83
2021/06/10 00:55:24;;;;;;;11.20;9.05;;;;;;;22.28;49.78;100325.75;5038872;28;20061;-83
2021/06/10 00:57:51;;;;;;;12.40;11.00;;;;;;;22.24;50.30;100328.72;5039194;28;20052;-82
2021/06/10 01:00:20;;;;;;;11.32;10.23;;;;;;;22.21;50.68;100326.31;5038910;28;20056;-82
2021/06/10 01:02:47;;;;;;;11.82;10.60;;;;;;;22.21;49.96;100323.66;5038543;28;20053;-82
2021/06/10 01:05:14;;;;;;;13.02;11.73;;;;;;;22.20;49.89;100326.50;5055859;28;20056;-82
2021/06/10 01:07:55;;;;;;;13.57;12.18;;;;;;;22.17;50.91;100318.75;5056375;28;20053;-82
2021/06/10 01:10:43;;;;;;;11.48;9.85;;;;;;;22.13;49.95;100321.72;5038409;28;20049;-82
2021/06/10 01:13:48;;;;;;;12.98;11.65;;;;;;;22.13;49.79;100316.38;5038737;28;20068;-82
2021/06/10 01:16:19;;;;;;;12.50;11.10;;;;;;;22.13;50.06;100307.50;5015370;28;20071;-82
2021/06/10 01:18:48;;;;;;;15.57;12.52;;;;;;;22.11;50.13;100312.16;5038564;28;20056;-81
2021/06/10 01:21:19;;;;;;;14.98;13.40;;;;;;;22.07;50.30;100308.06;5038604;28;20405;-83
2021/06/10 01:23:49;;;;;;;16.08;12.60;;;;;;;22.04;50.29;100303.84;5038298;28;20049;-81
2021/06/10 01:26:26;;;;;;;13.23;11.77;;;;;;;22.00;50.49;100305.16;5038061;28;20053;-81
2021/06/10 01:28:55;;;;;;;14.02;12.57;;;;;;;22.01;50.32;100306.81;4994089;28;20054;-81
2021/06/10 01:31:30;;;;;;;15.82;13.43;;;;;;;21.96;50.66;100309.13;4994582;28;20506;-81
2021/06/10 01:34:00;;;;;;;15.25;12.82;;;;;;;21.98;50.42;100313.34;4994335;28;20050;-81
2021/06/10 01:36:31;;;;;;;14.15;12.75;;;;;;;21.94;50.94;100311.13;4994373;28;20133;-81
2021/06/10 01:39:12;;;;;;;13.90;11.50;;;;;;;21.88;50.92;100301.81;4994240;28;20046;-81
2021/06/10 01:41:42;;;;;;;14.63;12.75;;;;;;;21.86;50.81;100301.13;4994365;28;20056;-81
2021/06/10 01:44:13;;;;;;;15.02;12.20;;;;;;;21.83;51.16;100299.56;4993649;28;20057;-82
2021/06/10 01:46:40;;;;;;;15.00;12.27;;;;;;;21.80;50.77;100297.22;5011786;28;20067;-81
2021/06/10 01:49:11;;;;;;;12.85;11.55;;;;;;;21.77;50.90;100299.31;5037961;28;20444;-81
2021/06/10 01:51:38;;;;;;;16.15;11.73;;;;;;;21.72;50.60;100297.94;5037470;28;20049;-81
2021/06/10 01:54:07;;;;;;;18.13;12.45;;;;;;;21.67;50.93;100288.63;5037497;28;20053;-81
2021/06/10 01:56:35;;;;;;;13.80;12.40;;;;;;;21.61;51.08;100284.72;5037097;28;20045;-81
2021/06/10 01:59:06;;;;;;;14.07;12.40;;;;;;;21.55;51.67;100285.28;5037545;28;20055;-81
2021/06/10 02:01:34;;;;;;;13.45;11.18;;;;;;;21.53;50.97;100281.91;5037436;28;20057;-81
2021/06/10 02:04:02;;;;;;;16.02;11.88;;;;;;;21.47;50.98;100284.19;5037456;28;20060;-81
2021/06/10 02:06:32;;;;;;;16.60;13.27;;;;;;;21.42;51.05;100277.59;5037905;28;20132;-81
2021/06/10 02:09:00;;;;;;;15.10;13.40;;;;;;;21.35;51.71;100270.13;5037344;28;20441;-81
2021/06/10 02:11:27;;;;;;;17.88;13.50;;;;;;;21.31;51.65;100273.25;5037290;28;20068;-81
2021/06/10 02:14:19;;;;;;;14.57;12.07;;;;;;;21.21;51.55;100271.44;5037231;28;20064;-81
2021/06/10 02:16:48;;;;;;;12.63;11.32;;;;;;;21.22;51.28;100270.44;5037391;28;20477;-81
2021/06/10 02:19:16;;;;;;;13.27;11.85;;;;;;;21.18;51.38;100263.69;5037129;28;20130;-81
2021/06/10 02:21:49;;;;;;;13.40;11.88;;;;;;;21.13;51.61;100267.78;5037480;28;20482;-81
2021/06/10 02:24:16;;;;;;;15.30;12.55;;;;;;;21.12;51.58;100261.56;5036451;28;20048;-81
2021/06/10 02:26:48;;;;;;;12.90;11.60;;;;;;;21.05;51.94;100264.00;5036800;28;20052;-81
2021/06/10 02:29:15;;;;;;;14.63;12.80;;;;;;;21.04;51.55;100266.84;5037042;28;20525;-81
2021/06/10 02:31:41;;;;;;;16.15;13.40;;;;;;;21.01;51.87;100264.44;5036971;28;20055;-81
2021/06/10 02:34:09;;;;;;;15.70;12.63;;;;;;;20.97;52.11;100263.84;5036992;28;20084;-81
2021/06/10 02:36:39;;;;;;;17.13;13.48;;;;;;;20.94;52.93;100266.84;5036942;28;20114;-81
2021/06/10 02:39:09;;;;;;;12.63;11.27;;;;;;;20.92;52.42;100269.66;5036601;28;20421;-81
2021/06/10 02:41:42;;;;;;;15.57;13.15;;;;;;;20.90;52.61;100260.91;5054253;28;20053;-81
2021/06/10 02:44:14;;;;;;;16.23;14.47;;;;;;;20.87;53.46;100266.56;5036024;28;20147;-81
2021/06/10 02:46:41;;;;;;;17.90;15.10;;;;;;;20.89;53.00;100274.47;5036945;28;20295;-81
2021/06/10 02:49:11;;;;;;;16.25;14.48;;;;;;;20.86;52.89;100264.81;5036833;28;20477;-81
2021/06/10 02:51:41;;;;;;;19.15;17.08;;;;;;;20.84;53.92;100266.81;5036574;28;20061;-81
2021/06/10 02:54:11;;;;;;;17.75;15.82;;;;;;;20.83;53.99;100265.13;5036667;28;20420;-81
2021/06/10 02:56:39;;;;;;;18.13;16.20;;;;;;;20.82;53.57;100261.59;5035959;28;20053;-81
2021/06/10 02:59:07;;;;;;;16.83;15.07;;;;;;;20.83;53.52;100265.13;5036577;28;20053;-81
2021/06/10 03:01:40;;;;;;;17.55;15.65;;;;;;;20.81;54.38;100259.06;5036408;28;20057;-81
2021/06/10 03:04:09;;;;;;;17.35;15.55;;;;;;;20.84;53.92;100264.13;5036765;28;20053;-81
2021/06/10 03:06:39;;;;;;;18.33;16.40;;;;;;;20.83;54.32;100257.94;5036503;28;20055;-81
2021/06/10 03:09:06;;;;;;;19.17;17.17;;;;;;;20.84;54.13;100261.47;5036157;28;20053;-81
2021/06/10 03:11:37;;;;;;;19.02;16.83;;;;;;;20.82;54.81;100256.25;5035869;28;20057;-81
2021/06/10 03:14:08;;;;;;;20.02;17.98;;;;;;;20.81;54.72;100251.03;5036256;28;20075;-81
2021/06/10 03:16:36;;;;;;;20.85;17.17;;;;;;;20.81;54.19;100261.75;5036393;28;20477;-81
2021/06/10 03:19:04;;;;;;;20.58;17.05;;;;;;;20.80;53.96;100257.38;5036704;28;20049;-81
2021/06/10 03:21:32;;;;;;;17.00;15.20;;;;;;;20.77;53.92;100250.50;5035457;28;20131;-81
2021/06/10 03:24:02;;;;;;;18.13;15.57;;;;;;;;;;5035458;28;20404;-81
2021/06/10 03:26:30;;;;;;;18.35;16.38;;;;;;;20.75;54.03;100255.13;5035941;28;20063;-81
2021/06/10 03:28:56;;;;;;;19.23;15.32;;;;;;;20.75;54.02;100248.94;5036042;28;20056;-81
2021/06/10 03:31:25;;;;;;;20.92;17.75;;;;;;;20.77;54.38;100254.97;5035886;28;20059;-81
2021/06/10 03:33:53;;;;;;;16.25;14.07;;;;;;;20.77;54.18;100246.97;5036048;28;20068;-81
2021/06/10 03:36:20;;;;;;;16.92;15.20;;;;;;;20.80;54.02;100257.38;5036025;28;20060;-81
2021/06/10 03:38:50;;;;;;;18.13;15.18;;;;;;;20.81;54.37;100251.03;5035509;28;20056;-81
2021/06/10 03:41:19;;;;;;;18.70;16.63;;;;;;;20.82;54.15;100250.91;5035627;28;20049;-81
2021/06/10 03:43:47;;;;;;;20.00;16.55;;;;;;;20.85;53.94;100257.78;5035928;28;20061;-81
2021/06/10 03:46:14;;;;;;;19.90;16.33;;;;;;;20.87;54.23;100258.53;5035731;28;20059;-81
2021/06/10 03:48:42;;;;;;;18.70;16.60;;;;;;;20.89;53.95;100255.72;5035445;28;20049;-81
2021/06/10 03:54:49;;;;;;;18.50;15.60;;;;;;;20.93;54.02;100247.25;5053407;28;20083;-89
2021/06/10 03:57:16;;;;;;;18.17;16.30;;;;;;;20.94;53.96;100250.78;5035677;28;20065;-89
2021/06/10 04:03:30;;;;;;;15.65;13.80;;;;;;;20.96;53.88;100252.31;5053280;28;20032;-89
2021/06/10 04:09:38;;;;;;;18.95;14.75;;;;;;;20.99;53.63;100244.97;5053314;28;20071;-89
2021/06/10 04:15:45;;;;;;;19.13;15.48;;;;;;;20.96;53.77;100256.81;5053299;28;20048;-89
2021/06/10 04:21:59;;;;;;;21.90;16.88;;;;;;;20.92;54.15;100248.25;5053176;28;20144;-89
2021/06/10 04:28:12;;;;;;;19.63;15.80;;;;;;;20.91;54.35;100243.88;5053363;28;20047;-89
2021/06/10 04:30:38;;;;;;;21.63;17.73;;;;;;;20.92;54.32;100247.38;5035814;28;20049;-89
2021/06/10 04:33:05;;;;;;;26.90;18.48;;;;;;;20.93;54.68;100251.78;5035509;28;20063;-89
2021/06/10 04:39:19;;;;;;;28.23;20.60;;;;;;;20.96;54.78;100244.31;5053207;28;20083;-89
2021/06/10 04:41:46;;;;;;;23.38;18.00;;;;;;;20.98;54.77;100246.84;5035184;28;20056;-88
2021/06/10 04:44:12;;;;;;;27.30;19.80;;;;;;;20.99;55.00;100253.88;5035308;28;20056;-88
2021/06/10 04:50:20;;;;;;;22.73;18.58;;;;;;;21.04;54.65;100250.78;5055674;28;20040;-88
2021/06/10 04:52:47;;;;;;;30.80;22.38;;;;;;;21.04;54.86;100259.63;5038962;28;20060;-88
2021/06/10 04:55:14;;;;;;;25.80;20.38;;;;;;;21.05;55.28;100258.63;5038935;28;20064;-89
2021/06/10 05:01:28;;;;;;;23.83;18.33;;;;;;;21.12;54.83;100272.28;5036405;28;20047;-89
2021/06/10 05:07:41;;;;;;;25.67;19.65;;;;;;;21.16;55.01;100268.34;5036687;28;20446;-89
2021/06/10 05:13:55;;;;;;;23.27;20.15;;;;;;;21.19;54.73;100270.72;5043788;28;20532;-89
2021/06/10 05:20:04;;;;;;;22.13;17.90;;;;;;;21.21;54.93;100279.47;5056057;28;20075;-89
2021/06/10 05:22:31;;;;;;;20.63;17.65;;;;;;;21.24;54.67;100272.13;5038714;28;20405;-89
2021/06/10 05:24:58;;;;;;;24.55;19.42;;;;;;;21.25;54.94;100268.47;5038263;28;20048;-89
2021/06/10 05:31:07;;;;;;;23.35;18.30;;;;;;;21.34;54.96;100270.25;5053035;28;20098;-89
2021/06/10 05:37:21;;;;;;;24.35;18.65;;;;;;;21.44;54.65;100276.44;5055757;28;20087;-89
2021/06/10 05:43:36;;;;;;;26.77;19.25;;;;;;;21.55;54.79;100277.25;5055790;28;20076;-89
2021/06/10 05:53:36;;;;;;;21.98;18.58;;;;;;;21.71;54.40;100287.31;5055472;28;20040;-89
2021/06/10 05:56:41;;;;;;;23.77;20.65;;;;;;;21.71;54.39;100282.81;5036139;28;20053;-89
2021/06/10 05:59:08;;;;;;;22.55;17.67;;;;;;;21.80;53.91;100285.66;5037839;28;20474;-89
2021/06/10 06:01:35;;;;;;;25.55;17.88;;;;;;;21.81;53.87;100293.53;5054732;28;20513;-89
2021/06/10 06:07:49;;;;;;;23.92;18.83;;;;;;;21.90;53.61;100299.00;5055215;28;20044;-89
2021/06/10 06:20:15;;;;;;;26.73;19.52;;;;;;;22.08;52.52;100301.72;5054932;28;20067;-89
2021/06/10 06:26:29;;;;;;;20.77;17.77;;;;;;;22.15;52.80;100307.31;5034894;28;20477;-89
2021/06/10 06:32:43;;;;;;;21.83;17.40;;;;;;;22.20;52.50;100305.88;5034808;28;20100;-89
2021/06/10 06:35:10;;;;;;;18.55;15.25;;;;;;;22.23;51.34;100299.38;5017203;28;20053;-89
2021/06/10 06:37:37;;;;;;;19.42;15.18;;;;;;;22.25;51.53;100314.31;5019105;28;20053;-89
2021/06/10 06:43:51;;;;;;;12.02;10.18;;;;;;;22.32;50.32;100327.13;5054568;28;20036;-89
2021/06/10 06:53:46;;;;;;;13.02;10.13;;;;;;;22.41;50.52;100328.06;5054005;28;20066;-89
2021/06/10 07:00:00;;;;;;;9.48;8.23;;;;;;;22.50;50.19;100329.84;4973656;28;20565;-89
2021/06/10 07:03:05;;;;;;;10.70;9.23;;;;;;;22.47;50.20;100330.16;4957643;28;20058;-89
2021/06/10 07:05:32;;;;;;;14.70;10.57;;;;;;;22.55;49.31;100334.78;4973526;28;20406;-89
2021/06/10 07:07:59;;;;;;;12.48;9.55;;;;;;;22.57;49.67;100330.94;4957336;28;20059;-89
2021/06/10 07:14:13;;;;;;;15.15;10.00;;;;;;;22.65;49.66;100341.75;5003670;28;20389;-89
2021/06/10 07:20:20;;;;;;;12.00;8.70;;;;;;;22.75;49.48;100348.88;5054044;28;20091;-89
2021/06/10 07:22:48;;;;;;;9.20;6.72;;;;;;;22.77;49.01;100338.88;5036142;28;20087;-89
2021/06/10 07:29:02;;;;;;;8.52;6.80;;;;;;;22.90;48.49;100338.47;5053945;28;20139;-89
2021/06/10 07:32:17;;;;;;;10.85;6.88;;;;;;;22.91;47.99;100350.88;5035946;28;20140;-89
2021/06/10 07:34:44;;;;;;;8.82;7.40;;;;;;;22.99;47.13;100347.44;5037037;28;20503;-89
2021/06/10 07:37:12;;;;;;;8.00;6.72;;;;;;;23.02;46.61;100347.13;5036039;28;20128;-89
2021/06/10 07:43:26;;;;;;;7.38;6.65;;;;;;;23.16;47.36;100351.09;5053556;28;20139;-89
2021/06/10 07:45:52;;;;;;;9.77;8.70;;;;;;;23.20;47.41;100356.97;5035910;28;20473;-89
2021/06/10 07:48:19;;;;;;;11.05;8.43;;;;;;;23.24;48.19;100345.78;5035873;28;20052;-89
2021/06/10 07:58:20;;;;;;;8.15;7.35;;;;;;;23.54;47.89;100350.88;5053385;28;20083;-89
2021/06/10 08:04:34;;;;;;;9.48;7.35;;;;;;;23.69;47.95;100354.69;5053084;28;20159;-89
2021/06/10 08:10:41;;;;;;;6.32;5.63;;;;;;;23.85;47.33;100353.06;5033519;28;20083;-89
2021/06/10 08:16:49;;;;;;;5.53;4.22;;;;;;;24.02;46.87;100350.47;5033605;28;20440;-89
2021/06/10 08:23:04;;;;;;;3.80;3.45;;;;;;;24.18;46.07;100352.44;5053198;28;20071;-89
2021/06/10 08:29:18;;;;;;;6.35;3.60;;;;;;;24.34;45.73;100357.84;5057331;28;20047;-89
2021/06/10 08:35:25;;;;;;;4.05;3.38;;;;;;;24.53;46.02;100360.44;5037236;28;20044;-89
2021/06/10 08:37:52;;;;;;;3.85;3.28;;;;;;;24.62;46.28;100361.28;5036869;28;20437;-89
2021/06/10 08:40:20;;;;;;;4.85;3.03;;;;;;;24.68;45.13;100357.94;5037410;28;20465;-89
2021/06/10 08:42:54;;;;;;;4.40;4.00;;;;;;;24.73;44.25;100356.44;5019686;28;20141;-89
2021/06/10 08:45:26;;;;;;;6.00;3.60;;;;;;;24.82;43.35;100359.97;5037515;28;20060;-89
2021/06/10 08:47:53;;;;;;;11.93;4.10;;;;;;;24.90;43.98;100353.78;5026509;28;20128;-89
2021/06/10 08:58:20;;;;;;;5.93;3.42;;;;;;;25.15;42.89;100366.41;5056595;28;20048;-89
2021/06/10 09:04:34;;;;;;;5.00;3.53;;;;;;;25.29;42.48;100365.72;5056149;28;20064;-89
2021/06/10 09:10:41;;;;;;;6.00;3.15;;;;;;;25.40;42.79;100366.38;5056323;28;20055;-89
2021/06/10 09:16:50;;;;;;;4.20;3.17;;;;;;;25.52;42.80;100372.28;5056183;28;20114;-89
2021/06/10 09:19:19;;;;;;;4.65;2.97;;;;;;;25.56;42.63;100376.31;5038616;28;20473;-83
2021/06/10 09:21:47;;;;;;;4.95;2.55;;;;;;;25.59;43.04;100368.75;5037909;28;20051;-82
2021/06/10 09:24:21;;;;;;;5.80;3.47;;;;;;;25.66;42.87;100386.94;5038744;28;20063;-82
2021/06/10 09:27:06;;;;;;;4.43;3.50;;;;;;;25.69;42.10;100387.44;5038216;28;20103;-82
2021/06/10 09:29:59;;;;;;;5.32;2.92;;;;;;;25.78;43.35;100390.13;5038348;28;20048;-82
2021/06/10 09:32:29;;;;;;;5.97;3.28;;;;;;;25.89;42.08;100387.03;5038245;28;20053;-82
2021/06/10 09:35:05;;;;;;;3.65;3.33;;;;;;;25.95;41.39;100382.81;5037746;28;20045;-82
2021/06/10 09:37:42;;;;;;;4.15;3.03;;;;;;;25.99;41.96;100384.16;5036991;28;20127;-82
2021/06/10 09:40:19;;;;;;;3.72;3.15;;;;;;;26.03;40.78;100377.41;5037956;28;20056;-82
2021/06/10 09:42:46;;;;;;;7.53;3.50;;;;;;;26.12;41.30;100364.69;5038042;28;20060;-82
2021/06/10 09:45:27;;;;;;;4.72;3.58;;;;;;;26.15;41.50;100369.75;5038216;28;20053;-82
2021/06/10 09:47:59;;;;;;;4.38;3.33;;;;;;;26.22;40.58;100369.88;5037881;28;20092;-82
2021/06/10 09:50:43;;;;;;;3.75;2.45;;;;;;;26.22;40.56;100375.28;5038033;28;20052;-82
2021/06/10 09:53:16;;;;;;;4.20;2.70;;;;;;;26.27;41.00;100370.22;5037761;28;20482;-82
2021/06/10 09:55:54;;;;;;;4.30;2.42;;;;;;;26.29;40.64;100373.59;5037402;28;20048;-82
2021/06/10 09:58:40;;;;;;;4.13;2.25;;;;;;;26.35;40.19;100366.66;5039802;28;20061;-82
2021/06/10 10:01:17;;;;;;;2.80;2.28;;;;;;;26.36;40.95;100377.28;5037730;28;20048;-83
2021/06/10 10:03:49;;;;;;;3.17;2.05;;;;;;;26.42;40.39;100367.63;5037628;28;20084;-82
2021/06/10 10:06:20;;;;;;;4.63;2.75;;;;;;;26.46;40.65;100370.81;5037426;28;20404;-83
2021/06/10 10:08:51;;;;;;;3.38;2.53;;;;;;;26.51;40.10;100369.25;5037718;28;20056;-83
2021/06/10 10:11:20;;;;;;;2.33;2.05;;;;;;;26.57;40.11;100370.41;5037743;28;20099;-83
2021/06/10 10:13:49;;;;;;;2.33;2.13;;;;;;;26.63;40.81;100376.97;5037015;28;20057;-82
2021/06/10 10:16:20;;;;;;;3.03;2.13;;;;;;;26.66;38.94;100372.03;5037360;28;20451;-82
2021/06/10 10:18:49;;;;;;;3.92;2.00;;;;;;;26.72;40.62;100365.06;5037508;28;20136;-82
2021/06/10 10:21:16;;;;;;;2.28;1.98;;;;;;;26.77;39.96;100368.06;5036818;28;20119;-83
2021/06/10 10:23:44;;;;;;;2.78;2.20;;;;;;;26.82;39.34;100372.94;5036965;28;20107;-82
2021/06/10 10:26:11;;;;;;;2.58;2.08;;;;;;;26.86;40.12;100368.03;5037196;28;20469;-83
2021/06/10 10:28:38;;;;;;;2.60;2.05;;;;;;;26.91;39.49;100368.34;5036861;28;20053;-83
2021/06/10 10:31:11;;;;;;;2.80;2.10;;;;;;;26.95;39.92;100380.50;5037457;28;20489;-83
2021/06/10 10:33:47;;;;;;;3.00;2.03;;;;;;;27.02;40.03;100369.81;5037225;28;20371;-83
2021/06/10 10:36:45;;;;;;;2.75;1.92;;;;;;;27.12;40.69;100370.38;5037542;28;20497;-82
2021/06/10 10:39:12;;;;;;;4.30;2.15;;;;;;;27.29;39.81;100375.66;5036848;28;20140;-82
2021/06/10 10:41:50;;;;;;;2.65;1.70;;;;;;;27.39;40.05;100370.81;5036610;28;20127;-83
2021/06/10 10:44:22;;;;;;;1.77;1.67;;;;;;;27.59;40.83;100367.59;5036834;28;20511;-83
2021/06/10 10:47:02;;;;;;;2.55;2.00;;;;;;;27.80;38.68;100369.59;5036548;28;20059;-82
2021/06/10 10:49:46;;;;;;;2.30;1.80;;;;;;;28.10;38.95;100374.13;5036684;28;20080;-89
2021/06/10 10:52:25;;;;;;;2.60;1.90;;;;;;;28.45;38.37;100368.13;5037370;28;20053;-89
2021/06/10 10:55:09;;;;;;;1.88;1.35;;;;;;;28.83;38.07;100372.47;4993199;28;20290;-84
2021/06/10 10:57:38;;;;;;;1.77;1.67;;;;;;;29.22;37.61;100373.03;4992364;28;20058;-84
2021/06/10 11:00:14;;;;;;;3.05;2.17;;;;;;;29.55;36.44;100360.78;4992955;28;20137;-83
2021/06/10 11:02:50;;;;;;;3.05;1.70;;;;;;;29.90;37.24;100358.09;4976541;28;20085;-83
2021/06/10 11:05:29;;;;;;;2.28;1.90;;;;;;;30.21;36.41;100356.81;4992511;28;20070;-85
2021/06/10 11:07:56;;;;;;;4.13;1.80;;;;;;;30.52;35.45;100355.41;4975954;28;20050;-84
2021/06/10 11:10:49;;;;;;;2.55;1.58;;;;;;;30.75;35.53;100365.09;4976138;28;20137;-84
2021/06/10 11:13:29;;;;;;;2.95;1.88;;;;;;;30.99;33.38;100360.13;5020377;28;20059;-85
2021/06/10 11:16:01;;;;;;;2.30;1.70;;;;;;;31.16;33.45;100356.97;5035407;28;20053;-85
2021/06/10 11:18:46;;;;;;;1.83;1.65;;;;;;;31.29;33.75;100353.41;5016804;28;20139;-85
2021/06/10 11:21:42;;;;;;;1.45;1.35;;;;;;;31.47;33.99;100355.53;5016233;28;20060;-85
2021/06/10 11:24:14;;;;;;;2.85;1.20;;;;;;;31.69;32.54;100349.81;5001354;28;20513;-85
2021/06/10 11:26:53;;;;;;;1.98;1.38;;;;;;;31.87;32.52;100349.13;5016506;28;20053;-85
2021/06/10 11:29:20;;;;;;;1.98;1.60;;;;;;;32.12;32.84;100345.69;5016031;28;20049;-85
2021/06/10 11:32:20;;;;;;;4.30;1.58;;;;;;;32.34;33.87;100340.78;5016423;28;20046;-85
2021/06/10 11:34:52;;;;;;;2.88;1.88;;;;;;;32.73;32.06;100339.91;5026295;28;20049;-85
2021/06/10 11:37:23;;;;;;;;;;;;;;;33.04;34.64;100335.53;5036233;28;20052;-85
2021/06/10 11:39:53;;;;;;;1.83;1.40;;;;;;;33.46;31.20;100337.63;5053364;28;19921;-85
2021/06/10 11:42:23;;;;;;;1.50;1.40;;;;;;;33.72;30.61;100335.69;5035519;28;20052;-85
2021/06/10 11:44:52;;;;;;;1.13;1.02;;;;;;;33.97;30.30;100329.28;5035874;28;20404;-85
2021/06/10 11:47:25;;;;;;;1.63;1.52;;;;;;;34.16;29.74;100338.31;5035648;28;20053;-85
2021/06/10 11:49:52;;;;;;;2.35;1.50;;;;;;;34.39;28.78;100325.78;5035958;28;20410;-85
2021/06/10 11:52:19;;;;;;;1.15;1.05;;;;;;;34.58;28.88;100332.03;5035411;28;20049;-85
2021/06/10 11:55:05;;;;;;;1.30;1.10;;;;;;;34.70;29.69;100323.06;5035331;28;20059;-85
2021/06/10 11:57:34;;;;;;;1.25;0.98;;;;;;;34.91;26.82;100318.09;5035521;28;20051;-86
2021/06/10 12:00:06;;;;;;;1.92;1.30;;;;;;;34.99;26.55;100319.66;5058160;28;20170;-85
2021/06/10 12:02:35;;;;;;;;;;;;;;;35.04;30.21;100317.03;5041570;28;20049;-85
2021/06/10 12:05:11;;;;;;;1.08;0.98;;;;;;;35.09;27.36;100319.88;5042174;28;19925;-85
2021/06/10 12:07:38;;;;;;;1.15;1.05;;;;;;;35.06;26.79;100309.44;5041340;28;20052;-86
2021/06/10 12:10:09;;;;;;;2.10;1.10;;;;;;;35.01;26.49;100306.56;5025371;28;20053;-85
2021/06/10 12:12:41;;;;;;;2.33;1.27;;;;;;;35.03;26.42;100298.94;5042421;28;20080;-83
2021/06/10 12:15:34;;;;;;;2.78;1.10;;;;;;;35.12;27.63;100300.25;5041745;28;20067;-83
2021/06/10 12:18:08;;;;;;;2.13;1.35;;;;;;;35.40;26.29;100298.72;5041753;28;20056;-83
2021/06/10 12:21:12;;;;;;;4.93;1.38;;;;;;;35.65;26.92;100296.78;5043877;28;20469;-85
2021/06/10 12:23:39;;;;;;;2.05;1.42;;;;;;;35.96;25.83;100300.16;5042156;28;20486;-86
2021/06/10 12:26:15;;;;;;;1.20;1.10;;;;;;;36.18;24.66;100304.97;5041761;28;20053;-85
2021/06/10 12:28:46;;;;;;;2.05;1.15;;;;;;;36.42;24.53;100296.59;5041597;28;20549;-86
2021/06/10 12:35:01;;;;;;;1.95;1.50;;;;;;;36.88;25.64;100293.78;5059859;28;20103;-90
2021/06/10 12:37:33;;;;;;;3.40;1.40;;;;;;;36.96;24.75;100301.59;5042327;28;20049;-89
2021/06/10 12:40:00;;;;;;;1.13;1.00;;;;;;;37.08;25.41;100287.81;5042111;28;20057;-84
2021/06/10 12:42:27;;;;;;;2.33;1.17;;;;;;;37.22;24.29;100293.78;5041707;28;20053;-84
2021/06/10 12:44:55;;;;;;;1.00;0.90;;;;;;;37.46;24.41;100293.56;5041598;28;20494;-85
2021/06/10 12:47:33;;;;;;;1.73;1.52;;;;;;;37.69;25.09;100291.66;5059603;28;20049;-84
2021/06/10 12:50:00;;;;;;;2.85;1.00;;;;;;;38.02;24.60;100287.09;5041642;28;20140;-84
2021/06/10 12:52:34;;;;;;;2.20;1.20;;;;;;;38.25;23.69;100279.63;5041530;28;20072;-84
2021/06/10 12:55:05;;;;;;;2.03;1.35;;;;;;;38.48;22.34;100290.56;5059610;28;20056;-84
2021/06/10 12:57:35;;;;;;;1.30;1.20;;;;;;;38.64;23.13;100289.59;5041480;28;20051;-84
2021/06/10 13:00:11;;;;;;;1.15;0.85;;;;;;;38.74;22.16;100291.59;5041720;28;20045;-85
2021/06/10 13:02:38;;;;;;;1.42;1.30;;;;;;;38.90;21.26;100283.47;5059247;28;20063;-84
2021/06/10 13:05:16;;;;;;;2.13;1.42;;;;;;;38.99;22.15;100292.03;5041700;28;20059;-84
2021/06/10 13:08:05;;;;;;;3.50;1.20;;;;;;;39.12;22.19;100285.28;5044802;28;20477;-85
2021/06/10 13:10:38;;;;;;;1.55;1.05;;;;;;;39.21;23.62;100283.66;5040647;28;20552;-85
2021/06/10 13:13:09;;;;;;;1.48;1.20;;;;;;;39.31;22.14;100285.66;4958972;28;20511;-85
2021/06/10 13:15:38;;;;;;;2.78;1.33;;;;;;;39.40;21.78;100284.03;4959053;28;20553;-85
2021/06/10 13:18:10;;;;;;;1.38;1.00;;;;;;;39.49;21.09;100287.06;4959441;28;20060;-84
2021/06/10 13:20:42;;;;;;;1.83;0.90;;;;;;;39.54;20.73;100292.63;4975126;28;20061;-84
2021/06/10 13:23:18;;;;;;;1.35;1.00;;;;;;;39.61;20.70;100295.13;4975081;28;20170;-84
2021/06/10 13:26:03;;;;;;;1.30;0.90;;;;;;;39.68;19.58;100290.22;4958724;28;20061;-82
2021/06/10 13:28:30;;;;;;;1.70;1.08;;;;;;;39.78;19.24;100288.56;4974460;28;20047;-82
2021/06/10 13:31:28;;;;;;;1.17;0.95;;;;;;;39.80;20.43;100289.97;5001104;28;20061;-82
2021/06/10 13:34:00;;;;;;;1.63;0.90;;;;;;;39.96;18.86;100295.50;5037800;28;20406;-82
2021/06/10 13:40:14;;;;;;;3.83;1.08;;;;;;;40.24;20.05;100279.56;5055862;28;20563;-88
2021/06/10 13:42:41;;;;;;;4.13;1.40;;;;;;;40.30;20.02;100272.97;5038182;28;20055;-81
2021/06/10 13:45:09;;;;;;;3.63;1.05;;;;;;;40.35;19.40;100272.13;5021701;28;20053;-81
2021/06/10 13:47:36;;;;;;;2.83;1.10;;;;;;;40.41;18.72;100271.06;5056028;28;20059;-81
2021/06/10 13:50:05;;;;;;;3.47;1.10;;;;;;;40.44;19.16;100270.53;5037712;28;20056;-81
2021/06/10 13:52:32;;;;;;;2.33;1.02;;;;;;;40.51;19.03;100267.50;5037394;28;20049;-81
2021/06/10 13:54:59;;;;;;;4.32;0.88;;;;;;;40.56;19.18;100261.97;5036870;28;20059;-81
2021/06/10 13:57:26;;;;;;;0.85;0.77;;;;;;;40.63;18.31;100262.50;5037649;28;20409;-81
2021/06/10 13:59:53;;;;;;;3.08;0.98;;;;;;;40.71;18.04;100258.38;5037519;28;20057;-82
2021/06/10 14:02:20;;;;;;;1.25;1.00;;;;;;;40.80;18.12;100260.56;5037673;28;20061;-88
2021/06/10 14:04:48;;;;;;;1.67;1.05;;;;;;;40.89;18.01;100253.38;5037640;28;20148;-88
2021/06/10 14:07:25;;;;;;;2.08;1.00;;;;;;;40.95;18.51;100255.00;5038745;28;20136;-88
2021/06/10 14:09:52;;;;;;;4.60;1.52;;;;;;;41.08;18.38;100250.84;5037724;28;20052;-88
2021/06/10 14:12:18;;;;;;;3.40;1.25;;;;;;;41.20;18.17;100239.47;5037378;28;20049;-88
2021/06/10 14:14:45;;;;;;;1.30;1.05;;;;;;;41.31;17.67;100243.03;5037525;28;20053;-88
2021/06/10 14:17:12;;;;;;;2.47;1.02;;;;;;;41.46;18.94;100242.13;5038368;28;20063;-88
2021/06/10 14:19:39;;;;;;;2.75;1.20;;;;;;;41.60;18.27;100234.06;5037868;28;20059;-82
2021/06/10 14:22:09;;;;;;;1.73;0.93;;;;;;;41.75;19.04;100235.09;5036834;28;20059;-82
2021/06/10 14:24:41;;;;;;;1.95;1.13;;;;;;;41.84;18.66;100240.81;5036601;28;20053;-83
2021/06/10 14:27:16;;;;;;;3.70;1.02;;;;;;;41.89;18.29;100232.53;5036819;28;20071;-81
2021/06/10 14:29:46;;;;;;;1.75;0.90;;;;;;;41.92;18.62;100232.75;5037080;28;20057;-81
2021/06/10 14:32:21;;;;;;;1.35;1.00;;;;;;;41.97;18.63;100225.53;5021207;28;20378;-81